DW4610 Gratot FR current weather conditions

sailwx.info

Wind from 211 at 6 knots gusting 16

Air temperature 14.4° C
Dewpoint 11.9° C

Last reported at 2019-Jun-16 05:00 UTC.
Time now 2019-Jun-16 05:19 UTC

Location: N 49°04' W 001°30'.
View on Google Maps.

See reports from other nearby stations

  
Tides and Currents Weather Stations Pressure Air Temp Water Temp Dewpoint Dewpoint Depression Visibility Wind Speed Wind Dir Waves Ship Positions
date/time (UTC)wind fromknots sea level pressurealtimeterstation pressurevisibilityair tempwater tempwave heightnotes
2019-Jun-16 05:00 211 6 gusting 16 14.4
2019-Jun-16 04:45 229 5 gusting 17 14.4
2019-Jun-16 04:30 188 5 gusting 15 14.4
2019-Jun-16 04:15 270 6 gusting 15 14.4
2019-Jun-16 04:00 205 5 gusting 13 14.4
2019-Jun-16 03:45 208 5 gusting 16 14.4
2019-Jun-16 03:30 221 5 gusting 16 14.4
2019-Jun-16 03:15 210 5 gusting 13 13.9
2019-Jun-16 03:00 229 4 gusting 9 13.9
2019-Jun-16 02:45 209 4 gusting 13 13.9
2019-Jun-16 02:30 206 4 gusting 14 13.9
2019-Jun-16 02:15 230 4 gusting 13 13.9
2019-Jun-16 02:00 218 4 gusting 13 13.3
2019-Jun-16 01:45 193 4 gusting 10 13.3
2019-Jun-16 01:30 229 4 gusting 13 13.3
2019-Jun-16 01:15 270 4 gusting 13 13.3
2019-Jun-16 01:00 231 4 gusting 13 13.9
2019-Jun-16 00:45 198 5 gusting 14 13.9
2019-Jun-16 00:30 276 3 gusting 7 13.9
2019-Jun-16 00:15 276 3 gusting 7 13.9
2019-Jun-16 00:00 276 3 gusting 7 13.9
2019-Jun-15 23:45 276 3 gusting 7 13.9
2019-Jun-15 23:30 276 3 gusting 7 13.9
2019-Jun-15 23:15 276 3 gusting 7 13.9
2019-Jun-15 23:00 276 3 gusting 7 13.9
2019-Jun-15 22:45 276 3 gusting 7 13.9
2019-Jun-15 22:30 276 3 gusting 7 13.9
2019-Jun-15 22:15 276 3 gusting 7 13.9
2019-Jun-15 22:00 276 3 gusting 7 13.9
2019-Jun-15 21:45 276 3 gusting 7 13.9
2019-Jun-15 21:30 276 3 gusting 7 13.9
2019-Jun-15 21:15 281 2 gusting 7 13.9
2019-Jun-15 21:00 277 0 gusting 3 13.9
2019-Jun-15 20:45 246 0 gusting 5 14.4
2019-Jun-15 20:30 245 14.4
2019-Jun-15 20:15 217 0 gusting 4 14.4
2019-Jun-15 20:00 209 1 gusting 6 14.4
2019-Jun-15 19:45 260 2 gusting 7 15.0
2019-Jun-15 19:30 210 3 gusting 8 15.0
2019-Jun-15 19:15 230 2 gusting 7 15.0
2019-Jun-15 19:00 246 6 gusting 15 15.6
2019-Jun-15 18:45 197 6 gusting 14 15.6
2019-Jun-15 18:30 251 4 gusting 13 15.6
2019-Jun-15 18:15 266 4 gusting 13 15.6
2019-Jun-15 18:00 231 5 gusting 13 15.6
2019-Jun-15 17:45 238 6 gusting 15 15.6
2019-Jun-15 17:30 242 7 gusting 20 16.1
2019-Jun-15 17:15 204 7 gusting 22 16.7
2019-Jun-15 17:00 225 11 gusting 28 17.2
2019-Jun-15 16:45 199 9 gusting 23 17.8
2019-Jun-15 16:30 195 9 gusting 21 16.7
2019-Jun-15 16:15 224 7 gusting 25 17.2
2019-Jun-15 16:00 247 8 gusting 22 17.2
2019-Jun-15 15:45 240 11 gusting 28 17.8
2019-Jun-15 15:30 242 11 gusting 26 17.2
2019-Jun-15 15:15 172 8 gusting 26 16.7
2019-Jun-15 15:00 261 10 gusting 27 16.1
2019-Jun-15 14:45 249 8 gusting 26 16.7
2019-Jun-15 14:30 184 6 gusting 19 16.7
2019-Jun-15 14:15 182 6 gusting 19 16.7
2019-Jun-15 14:00 243 6 gusting 19 16.7
2019-Jun-15 13:45 189 8 gusting 23 16.7
2019-Jun-15 13:30 217 9 gusting 20 17.2
2019-Jun-15 13:15 208 7 gusting 23 16.7
2019-Jun-15 13:00 175 9 gusting 22 17.2
2019-Jun-15 12:45 226 6 gusting 21 17.2
2019-Jun-15 12:30 233 7 gusting 19 16.7
2019-Jun-15 12:15 232 7 gusting 20 16.1
2019-Jun-15 12:00 223 6 gusting 19 16.7
2019-Jun-15 11:45 189 7 gusting 19 16.7
2019-Jun-15 11:30 214 8 gusting 23 17.8
2019-Jun-15 11:15 224 7 gusting 19 17.8
2019-Jun-15 11:00 221 9 gusting 23 17.2
2019-Jun-15 10:45 242 9 gusting 26 17.8
2019-Jun-15 10:30 220 9 gusting 22 17.8
2019-Jun-15 10:15 203 6 gusting 18 16.7
2019-Jun-15 10:00 210 6 gusting 18 16.7
2019-Jun-15 09:45 208 6 gusting 18 17.8
2019-Jun-15 09:30 217 6 gusting 20 16.7
2019-Jun-15 09:15 192 6 gusting 15 16.1
2019-Jun-15 09:00 238 7 gusting 19 16.1
2019-Jun-15 08:45 216 8 gusting 24 16.7
2019-Jun-15 08:30 204 8 gusting 17 15.6
2019-Jun-15 08:15 193 6 gusting 18 16.1
2019-Jun-15 08:00 197 6 gusting 19 15.6
2019-Jun-15 07:45 236 6 gusting 16 15.6
2019-Jun-15 07:30 211 6 gusting 18 15.0
2019-Jun-15 07:15 218 5 gusting 15 15.0
2019-Jun-15 07:00 218 4 gusting 10 13.9
2019-Jun-15 06:45 196 3 gusting 11 13.3
2019-Jun-15 06:30 224 4 gusting 12 13.3
2019-Jun-15 06:15 187 4 gusting 10 13.3
2019-Jun-15 06:00 181 3 gusting 9 12.8
2019-Jun-15 05:45 181 4 gusting 10 12.2
2019-Jun-15 05:30 226 4 gusting 8 12.2
2019-Jun-15 05:15 176 3 gusting 8 12.2
2019-Jun-15 05:00 143 2 gusting 8 12.2
2019-Jun-15 04:45 166 3 gusting 8 11.7
2019-Jun-15 04:30 193 4 gusting 10 12.2
2019-Jun-15 04:15 161 4 gusting 9 12.2
2019-Jun-15 04:00 177 3 gusting 8 12.2
2019-Jun-15 03:45 182 2 gusting 7 12.2
2019-Jun-15 03:30 166 3 gusting 8 12.2
2019-Jun-15 03:15 145 3 gusting 7 12.2
2019-Jun-15 03:00 181 2 gusting 6 12.8
2019-Jun-15 02:45 205 1 gusting 6 12.8
2019-Jun-15 02:30 176 1 gusting 6 12.8
2019-Jun-15 02:15 191 1 gusting 6 12.2
2019-Jun-15 02:00 202 1 gusting 7 12.2
2019-Jun-15 01:45 196 0 gusting 6 12.2
2019-Jun-15 01:30 189 11.7
2019-Jun-15 01:15 11.7
2019-Jun-15 01:00 181 11.7
2019-Jun-15 00:45 181 11.7
2019-Jun-15 00:30 153 0 gusting 5 12.2
2019-Jun-15 00:15 11.7
2019-Jun-15 00:00 12.2
2019-Jun-14 23:45 12.2
2019-Jun-14 23:30 157 12.2
2019-Jun-14 23:15 161 12.2
2019-Jun-14 23:00 112 11.7
2019-Jun-14 22:45 11.7
2019-Jun-14 22:30 11.7
2019-Jun-14 22:15 11.7
2019-Jun-14 22:00 11.1
2019-Jun-14 21:45 11.7
2019-Jun-14 21:30 11.7
2019-Jun-14 21:15 11.7
2019-Jun-14 21:00 12.2
2019-Jun-14 20:45 12.8
2019-Jun-14 20:30 13.3
2019-Jun-14 20:15 13.9
2019-Jun-14 20:00 15.0
2019-Jun-14 19:45 15.6
2019-Jun-14 19:30 311 16.7
2019-Jun-14 19:15 316 0 gusting 5 16.7
2019-Jun-14 19:00 310 1 gusting 6 16.1
2019-Jun-14 18:45 326 0 gusting 5 16.7
2019-Jun-14 18:30 305 2 gusting 7 17.2
2019-Jun-14 18:15 294 2 gusting 6 17.8
2019-Jun-14 18:00 340 0 gusting 4 18.3
2019-Jun-14 17:45 279 0 gusting 6 16.7
2019-Jun-14 17:30 288 2 gusting 7 16.7
2019-Jun-14 17:15 272 2 gusting 7 17.2
2019-Jun-14 17:00 305 1 gusting 8 18.3
2019-Jun-14 16:45 302 2 gusting 7 18.3
2019-Jun-14 16:30 278 3 gusting 9 18.3
2019-Jun-14 16:15 293 3 gusting 9 19.4
2019-Jun-14 16:00 282 3 gusting 10 17.8
2019-Jun-14 15:45 266 2 gusting 10 17.8
2019-Jun-14 15:30 276 3 gusting 11 18.3
2019-Jun-14 15:15 291 3 gusting 10 19.4
2019-Jun-14 15:00 293 1 gusting 7 20.6
2019-Jun-14 14:45 286 1 gusting 6 18.3
2019-Jun-14 14:30 289 2 gusting 7 17.2
2019-Jun-14 14:15 295 2 gusting 6 17.2
2019-Jun-14 14:00 265 1 gusting 7 17.2
2019-Jun-14 13:45 274 1 gusting 6 16.7
2019-Jun-14 13:30 296 2 gusting 7 16.7
2019-Jun-14 13:15 281 2 gusting 9 17.2
2019-Jun-14 13:00 253 3 gusting 7 17.8
2019-Jun-14 12:45 248 4 gusting 13 18.9
2019-Jun-14 12:30 215 5 gusting 13 20.6
2019-Jun-14 12:15 232 5 gusting 13 20.6
2019-Jun-14 12:00 232 6 gusting 13 20.0
2019-Jun-14 11:45 230 4 gusting 12 20.0
2019-Jun-14 11:30 197 6 gusting 13 18.9
2019-Jun-14 11:15 242 5 gusting 14 19.4
2019-Jun-14 11:00 208 6 gusting 15 19.4
2019-Jun-14 10:45 215 6 gusting 17 18.9
2019-Jun-14 10:30 219 5 gusting 15 17.8
2019-Jun-14 10:15 241 5 gusting 13 17.8
2019-Jun-14 10:00 215 6 gusting 14 17.8
2019-Jun-14 09:45 192 6 gusting 16 17.2
2019-Jun-14 09:30 217 6 gusting 18 17.2
2019-Jun-14 09:15 277 6 gusting 17 16.7
2019-Jun-14 09:00 217 6 gusting 18 16.1
2019-Jun-14 08:45 219 6 gusting 13 15.6
2019-Jun-14 08:30 209 5 gusting 14 15.6
2019-Jun-14 08:15 245 5 gusting 14 15.0
2019-Jun-14 08:00 223 5 gusting 13 15.0
2019-Jun-14 07:45 182 6 gusting 16 14.4
2019-Jun-14 07:30 221 6 gusting 17 14.4
2019-Jun-14 07:15 202 6 gusting 15 14.4
2019-Jun-14 07:00 187 5 gusting 13 13.3
2019-Jun-14 06:45 198 4 gusting 11 13.3
2019-Jun-14 06:30 186 3 gusting 10 13.9
2019-Jun-14 06:15 187 3 gusting 12 12.8
2019-Jun-14 06:00 173 3 gusting 8 12.2
2019-Jun-14 05:45 186 3 gusting 8 12.2
2019-Jun-14 05:30 179 1 gusting 6 11.7
2019-Jun-14 05:15 185 2 gusting 7 11.7
2019-Jun-14 05:00 174 1 gusting 6 11.1